<?xml version="1.0" encoding="UTF-8" standalone="no" ?>
<gpx xmlns="http://www.topografix.com/GPX/1/1" xmlns:xsi="http://www.w3.org/2001/XMLSchema-instance" xsi:schemaLocation="http://www.topografix.com/GPX/1/1 http://www.topografix.com/GPX/1/1/gpx.xsd" version="1.1" creator="VisuGPX - https://www.visugpx.com">
  <metadata>
    <name>sortie du 09/02/2020</name>
    <desc><![CDATA[reprise en douceur sous le soleil béarnais]]></desc>
  </metadata>
  <trk>
    <name><![CDATA[Tracé actuel: 09 FEV 2020 08:52]]></name>
    <trkseg>
      <trkpt lat="43.40474" lon="-0.56677">
        <ele>130.4</ele>
        <time>2020-02-09T07:52:22Z</time>
      </trkpt>
      <trkpt lat="43.40474" lon="-0.56677">
        <ele>132.32</ele>
        <time>2020-02-09T07:52:33Z</time>
      </trkpt>
      <trkpt lat="43.40457" lon="-0.5669">
        <ele>133.28</ele>
        <time>2020-02-09T07:52:46Z</time>
      </trkpt>
      <trkpt lat="43.40453" lon="-0.56694">
        <ele>133.76</ele>
        <time>2020-02-09T07:52:49Z</time>
      </trkpt>
      <trkpt lat="43.40451" lon="-0.56702">
        <ele>133.28</ele>
        <time>2020-02-09T07:52:52Z</time>
      </trkpt>
      <trkpt lat="43.40456" lon="-0.56734">
        <ele>131.36</ele>
        <time>2020-02-09T07:53:06Z</time>
      </trkpt>
      <trkpt lat="43.40458" lon="-0.56742">
        <ele>130.88</ele>
        <time>2020-02-09T07:53:21Z</time>
      </trkpt>
      <trkpt lat="43.4046" lon="-0.56743">
        <ele>127.99</ele>
        <time>2020-02-09T07:53:54Z</time>
      </trkpt>
      <trkpt lat="43.40459" lon="-0.56745">
        <ele>129.92</ele>
        <time>2020-02-09T07:54:26Z</time>
      </trkpt>
      <trkpt lat="43.40458" lon="-0.56745">
        <ele>129.43</ele>
        <time>2020-02-09T07:54:59Z</time>
      </trkpt>
      <trkpt lat="43.40458" lon="-0.56748">
        <ele>132.32</ele>
        <time>2020-02-09T07:55:21Z</time>
      </trkpt>
      <trkpt lat="43.40458" lon="-0.56744">
        <ele>130.88</ele>
        <time>2020-02-09T07:55:55Z</time>
      </trkpt>
      <trkpt lat="43.40458" lon="-0.56742">
        <ele>131.84</ele>
        <time>2020-02-09T07:56:16Z</time>
      </trkpt>
      <trkpt lat="43.40457" lon="-0.56743">
        <ele>131.84</ele>
        <time>2020-02-09T07:56:38Z</time>
      </trkpt>
      <trkpt lat="43.40458" lon="-0.56743">
        <ele>133.28</ele>
        <time>2020-02-09T07:57:07Z</time>
      </trkpt>
      <trkpt lat="43.40457" lon="-0.56743">
        <ele>133.28</ele>
        <time>2020-02-09T07:57:36Z</time>
      </trkpt>
      <trkpt lat="43.40459" lon="-0.56743">
        <ele>134.72</ele>
        <time>2020-02-09T07:57:56Z</time>
      </trkpt>
      <trkpt lat="43.40457" lon="-0.56745">
        <ele>134.24</ele>
        <time>2020-02-09T07:58:06Z</time>
      </trkpt>
      <trkpt lat="43.40457" lon="-0.56747">
        <ele>134.24</ele>
        <time>2020-02-09T07:58:07Z</time>
      </trkpt>
      <trkpt lat="43.40456" lon="-0.56749">
        <ele>134.24</ele>
        <time>2020-02-09T07:58:08Z</time>
      </trkpt>
      <trkpt lat="43.40454" lon="-0.56751">
        <ele>134.72</ele>
        <time>2020-02-09T07:58:09Z</time>
      </trkpt>
      <trkpt lat="43.40453" lon="-0.56752">
        <ele>134.72</ele>
        <time>2020-02-09T07:58:10Z</time>
      </trkpt>
      <trkpt lat="43.40441" lon="-0.56758">
        <ele>133.76</ele>
        <time>2020-02-09T07:58:17Z</time>
      </trkpt>
      <trkpt lat="43.40435" lon="-0.56757">
        <ele>133.28</ele>
        <time>2020-02-09T07:58:21Z</time>
      </trkpt>
      <trkpt lat="43.40427" lon="-0.56757">
        <ele>133.76</ele>
        <time>2020-02-09T07:58:33Z</time>
      </trkpt>
      <trkpt lat="43.40429" lon="-0.56758">
        <ele>133.28</ele>
        <time>2020-02-09T07:59:26Z</time>
      </trkpt>
      <trkpt lat="43.40429" lon="-0.56759">
        <ele>135.2</ele>
        <time>2020-02-09T08:00:10Z</time>
      </trkpt>
      <trkpt lat="43.40427" lon="-0.56758">
        <ele>135.2</ele>
        <time>2020-02-09T08:00:47Z</time>
      </trkpt>
      <trkpt lat="43.40428" lon="-0.56757">
        <ele>137.13</ele>
        <time>2020-02-09T08:01:31Z</time>
      </trkpt>
      <trkpt lat="43.40427" lon="-0.56758">
        <ele>134.24</ele>
        <time>2020-02-09T08:02:08Z</time>
      </trkpt>
      <trkpt lat="43.40424" lon="-0.56756">
        <ele>132.8</ele>
        <time>2020-02-09T08:02:50Z</time>
      </trkpt>
      <trkpt lat="43.4043" lon="-0.56759">
        <ele>136.16</ele>
        <time>2020-02-09T08:03:29Z</time>
      </trkpt>
      <trkpt lat="43.40428" lon="-0.56757">
        <ele>134.24</ele>
        <time>2020-02-09T08:04:03Z</time>
      </trkpt>
      <trkpt lat="43.40427" lon="-0.56756">
        <ele>130.88</ele>
        <time>2020-02-09T08:04:48Z</time>
      </trkpt>
      <trkpt lat="43.40431" lon="-0.5676">
        <ele>133.76</ele>
        <time>2020-02-09T08:05:26Z</time>
      </trkpt>
      <trkpt lat="43.40428" lon="-0.56759">
        <ele>129.43</ele>
        <time>2020-02-09T08:06:03Z</time>
      </trkpt>
      <trkpt lat="43.40428" lon="-0.56757">
        <ele>133.76</ele>
        <time>2020-02-09T08:06:44Z</time>
      </trkpt>
      <trkpt lat="43.40429" lon="-0.56757">
        <ele>133.28</ele>
        <time>2020-02-09T08:07:24Z</time>
      </trkpt>
      <trkpt lat="43.40431" lon="-0.56759">
        <ele>135.2</ele>
        <time>2020-02-09T08:08:05Z</time>
      </trkpt>
      <trkpt lat="43.40429" lon="-0.56757">
        <ele>135.68</ele>
        <time>2020-02-09T08:08:49Z</time>
      </trkpt>
      <trkpt lat="43.40431" lon="-0.56758">
        <ele>136.16</ele>
        <time>2020-02-09T08:09:31Z</time>
      </trkpt>
      <trkpt lat="43.40429" lon="-0.56759">
        <ele>135.2</ele>
        <time>2020-02-09T08:09:49Z</time>
      </trkpt>
      <trkpt lat="43.40428" lon="-0.56756">
        <ele>134.72</ele>
        <time>2020-02-09T08:10:03Z</time>
      </trkpt>
      <trkpt lat="43.40429" lon="-0.56757">
        <ele>134.24</ele>
        <time>2020-02-09T08:10:32Z</time>
      </trkpt>
      <trkpt lat="43.4043" lon="-0.56757">
        <ele>134.24</ele>
        <time>2020-02-09T08:10:54Z</time>
      </trkpt>
    </trkseg>
  </trk>
</gpx>